createdAt,value
2019-05-02T00:01:05.447Z,8.97
2019-05-02T00:03:41.221Z,10.57
2019-05-02T00:06:15.251Z,10.10
2019-05-02T00:08:50.219Z,9.43
2019-05-02T00:11:24.327Z,9.73
2019-05-02T00:13:55.455Z,8.77
2019-05-02T00:16:25.464Z,9.27
2019-05-02T00:18:55.953Z,10.23
2019-05-02T00:21:27.049Z,10.17
2019-05-02T00:23:59.179Z,10.83
2019-05-02T00:26:28.550Z,10.80
2019-05-02T00:29:02.131Z,11.80
2019-05-02T00:31:32.385Z,11.87
2019-05-02T00:34:03.277Z,11.73
2019-05-02T00:36:32.841Z,11.73
2019-05-02T00:39:02.242Z,13.43
2019-05-02T00:41:38.281Z,12.97
2019-05-02T00:44:06.026Z,13.50
2019-05-02T00:46:39.432Z,15.40
2019-05-02T00:49:13.501Z,14.20
2019-05-02T00:51:46.897Z,13.23
2019-05-02T00:54:19.276Z,12.90
2019-05-02T00:56:49.501Z,14.00
2019-05-02T00:59:19.255Z,16.40
2019-05-02T01:02:05.356Z,14.53
2019-05-02T01:04:36.072Z,15.77
2019-05-02T01:07:07.525Z,14.80
2019-05-02T01:09:52.378Z,17.93
2019-05-02T01:12:44.517Z,16.43
2019-05-02T01:15:46.506Z,16.23
2019-05-02T01:17:53.332Z,17.10
2019-05-02T01:20:27.562Z,15.43
2019-05-02T01:22:54.317Z,14.50
2019-05-02T01:25:24.043Z,14.57
2019-05-02T01:28:17.689Z,14.43
2019-05-02T01:31:18.330Z,17.00
2019-05-02T01:34:07.122Z,16.23
2019-05-02T01:36:41.429Z,15.27
2019-05-02T01:39:12.664Z,15.97
2019-05-02T01:41:42.497Z,17.93
2019-05-02T01:44:11.998Z,18.03
2019-05-02T01:46:41.588Z,16.50
2019-05-02T01:49:11.200Z,17.43
2019-05-02T01:51:47.776Z,17.03
2019-05-02T01:54:18.861Z,16.97
2019-05-02T01:56:48.638Z,16.03
2019-05-02T01:59:18.225Z,17.10
2019-05-02T02:01:53.237Z,16.87
2019-05-02T02:04:21.013Z,15.10
2019-05-02T02:06:52.375Z,15.67
2019-05-02T02:09:23.386Z,19.17
2019-05-02T02:11:59.642Z,18.87
2019-05-02T02:14:29.477Z,19.73
2019-05-02T02:16:59.029Z,18.30
2019-05-02T02:19:34.583Z,17.63
2019-05-02T02:22:33.768Z,17.00
2019-05-02T02:25:26.200Z,18.03
2019-05-02T02:28:01.700Z,18.53
2019-05-02T02:30:34.124Z,16.47
2019-05-02T02:33:13.376Z,18.50
2019-05-02T02:35:49.173Z,18.93
2019-05-02T02:38:14.277Z,18.47
2019-05-02T02:40:47.996Z,18.10
2019-05-02T02:43:54.742Z,19.53
2019-05-02T02:46:37.782Z,19.83
2019-05-02T02:49:02.568Z,18.27
2019-05-02T02:51:32.211Z,19.40
2019-05-02T02:54:03.750Z,18.13
2019-05-02T02:56:34.577Z,17.47
2019-05-02T02:59:04.319Z,20.57
2019-05-02T03:01:33.959Z,19.07
2019-05-02T03:04:09.715Z,20.70
2019-05-02T03:06:38.401Z,20.90
2019-05-02T03:09:09.005Z,19.00
2019-05-02T03:12:02.319Z,18.23
2019-05-02T03:14:30.830Z,17.93
2019-05-02T03:17:00.437Z,18.50
2019-05-02T03:19:29.978Z,20.80
2019-05-02T03:22:01.548Z,20.00
2019-05-02T03:24:36.495Z,18.30
2019-05-02T03:27:01.961Z,18.47
2019-05-02T03:29:41.229Z,22.63
2019-05-02T03:32:16.132Z,18.97
2019-05-02T03:34:47.223Z,19.17
2019-05-02T03:37:11.322Z,17.57
2019-05-02T03:39:49.246Z,19.83
2019-05-02T03:42:20.511Z,19.13
2019-05-02T03:44:56.237Z,18.87
2019-05-02T03:47:23.645Z,19.53
2019-05-02T03:59:14.927Z,16.83
2019-05-02T04:02:19.771Z,19.73
2019-05-02T04:04:46.783Z,19.97
2019-05-02T04:07:19.450Z,18.60
2019-05-02T04:09:49.016Z,19.10
2019-05-02T04:12:21.972Z,20.67
2019-05-02T04:14:55.574Z,19.90
2019-05-02T04:17:28.883Z,17.73
2019-05-02T04:19:55.234Z,19.07
2019-05-02T04:22:25.213Z,18.17
2019-05-02T04:24:57.245Z,15.60
2019-05-02T04:27:33.966Z,17.00
2019-05-02T04:30:09.986Z,16.43
2019-05-02T04:32:29.553Z,18.23
2019-05-02T04:34:59.259Z,18.97
2019-05-02T04:37:34.360Z,19.30
2019-05-02T04:40:03.195Z,19.83
2019-05-02T04:42:31.199Z,17.20
2019-05-02T04:45:21.186Z,21.00
2019-05-02T04:47:32.079Z,20.40
2019-05-02T04:50:10.236Z,21.57
2019-05-02T04:52:38.365Z,20.77
2019-05-02T04:55:17.150Z,19.97
2019-05-02T04:57:37.956Z,20.00
2019-05-02T05:00:11.541Z,20.37
2019-05-02T05:02:40.493Z,19.07
2019-05-02T05:05:10.089Z,19.77
2019-05-02T05:07:46.090Z,19.37
2019-05-02T05:10:12.997Z,26.27
2019-05-02T05:12:42.468Z,21.20
2019-05-02T05:15:33.794Z,20.90
2019-05-02T05:17:45.565Z,21.17
2019-05-02T05:20:15.860Z,21.13
2019-05-02T05:22:47.509Z,20.33
2019-05-02T05:25:21.571Z,21.97
2019-05-02T05:27:52.548Z,19.00
2019-05-02T05:30:22.216Z,17.50
2019-05-02T05:32:51.785Z,19.43
2019-05-02T05:35:21.566Z,19.87
2019-05-02T05:37:53.102Z,18.73
2019-05-02T05:40:27.146Z,21.73
2019-05-02T05:42:53.478Z,18.17
2019-05-02T05:45:23.081Z,21.17
2019-05-02T05:47:56.874Z,19.53
2019-05-02T05:50:23.687Z,18.37
2019-05-02T05:52:53.223Z,19.70
2019-05-02T05:55:24.407Z,21.17
2019-05-02T05:57:59.960Z,23.50
2019-05-02T06:00:27.776Z,20.73
2019-05-02T06:03:10.200Z,19.50
2019-05-02T06:05:33.232Z,22.77
2019-05-02T06:08:03.082Z,24.27
2019-05-02T06:10:32.472Z,23.17
2019-05-02T06:13:05.310Z,22.17
2019-05-02T06:15:33.851Z,22.73
2019-05-02T06:18:04.832Z,21.67
2019-05-02T06:20:34.634Z,22.20
2019-05-02T06:23:04.088Z,23.53
2019-05-02T06:25:36.397Z,21.73
2019-05-02T06:28:05.423Z,26.70
2019-05-02T06:30:35.922Z,24.87
2019-05-02T06:33:05.446Z,25.87
2019-05-02T06:35:34.975Z,26.40
2019-05-02T06:38:04.461Z,27.13
2019-05-02T06:40:33.909Z,28.43
2019-05-02T06:43:04.447Z,24.53
2019-05-02T06:45:37.554Z,27.07
2019-05-02T06:48:08.538Z,26.77
2019-05-02T06:50:39.012Z,25.50
2019-05-02T06:53:11.014Z,29.07
2019-05-02T06:55:40.428Z,31.40
2019-05-02T06:58:10.049Z,28.97
2019-05-02T07:00:56.869Z,24.77
2019-05-02T07:03:12.715Z,29.57
2019-05-02T07:05:42.092Z,30.47
2019-05-02T07:08:13.920Z,30.07
2019-05-02T07:10:44.689Z,32.80
2019-05-02T07:13:15.186Z,32.23
2019-05-02T07:15:55.482Z,29.90
2019-05-02T07:18:28.892Z,30.93
2019-05-02T07:20:58.306Z,33.53
2019-05-02T07:23:27.694Z,29.47
2019-05-02T07:26:00.107Z,27.83
2019-05-02T07:28:28.267Z,28.13
2019-05-02T07:30:57.799Z,29.53
2019-05-02T07:33:27.227Z,27.73
2019-05-02T07:36:00.174Z,29.07
2019-05-02T07:38:27.761Z,32.57
2019-05-02T07:40:57.199Z,33.30
2019-05-02T07:43:30.333Z,31.77
2019-05-02T07:45:59.804Z,31.83
2019-05-02T07:48:29.279Z,31.93
2019-05-02T07:50:58.720Z,34.57
2019-05-02T07:53:28.154Z,32.07
2019-05-02T07:55:57.635Z,34.10
2019-05-02T07:58:27.003Z,35.93
2019-05-02T08:00:56.434Z,35.07
2019-05-02T08:03:29.363Z,31.97
2019-05-02T08:05:58.599Z,31.63
2019-05-02T08:08:29.824Z,32.50
2019-05-02T08:11:01.733Z,32.30
2019-05-02T08:13:31.553Z,29.77
2019-05-02T08:16:01.167Z,31.50
2019-05-02T08:18:31.666Z,30.90
2019-05-02T08:21:01.241Z,32.13
2019-05-02T08:23:30.640Z,32.77
2019-05-02T08:26:00.038Z,33.73
2019-05-02T08:28:46.964Z,31.63
2019-05-02T08:31:18.868Z,31.00
2019-05-02T08:33:46.588Z,34.80
2019-05-02T08:36:16.031Z,33.90
2019-05-02T08:38:48.845Z,31.77
2019-05-02T08:41:20.269Z,31.27
2019-05-02T08:43:50.344Z,32.50
2019-05-02T08:46:21.356Z,32.53
2019-05-02T08:48:50.949Z,31.10
2019-05-02T08:51:20.430Z,32.47
2019-05-02T08:53:56.285Z,31.47
2019-05-02T08:56:22.914Z,33.30
2019-05-02T08:58:52.394Z,33.50
2019-05-02T09:01:34.308Z,34.13
2019-05-02T09:03:57.050Z,29.80
2019-05-02T09:06:24.193Z,32.70
2019-05-02T09:08:53.717Z,35.47
2019-05-02T09:11:23.098Z,33.83
2019-05-02T09:13:52.682Z,32.37
2019-05-02T09:16:28.918Z,32.83
2019-05-02T09:18:54.243Z,29.07
2019-05-02T09:21:26.774Z,34.17
2019-05-02T09:23:54.934Z,32.43
2019-05-02T09:26:35.021Z,32.97
2019-05-02T09:28:56.385Z,33.90
2019-05-02T09:31:26.518Z,32.60
2019-05-02T09:33:55.868Z,32.60
2019-05-02T09:36:28.144Z,32.90
2019-05-02T09:38:57.775Z,30.93
2019-05-02T09:41:32.424Z,32.93
2019-05-02T09:43:58.429Z,33.93
2019-05-02T09:46:27.806Z,32.83
2019-05-02T09:49:01.755Z,30.60
2019-05-02T09:51:28.616Z,33.53
2019-05-02T09:54:02.644Z,33.03
2019-05-02T09:56:29.113Z,31.77
2019-05-02T09:59:06.182Z,32.97
2019-05-02T10:01:34.684Z,28.97
2019-05-02T10:04:04.368Z,30.10
2019-05-02T10:06:34.088Z,31.20
2019-05-02T10:09:05.787Z,30.27
2019-05-02T10:11:35.291Z,31.57
2019-05-02T10:14:05.262Z,31.43
2019-05-02T10:16:34.603Z,31.70
2019-05-02T10:19:09.503Z,30.77
2019-05-02T10:21:35.065Z,31.03
2019-05-02T10:24:04.638Z,31.63
2019-05-02T10:26:34.013Z,31.13
2019-05-02T10:29:03.370Z,29.00
2019-05-02T10:31:37.475Z,29.47
2019-05-02T10:34:03.885Z,28.80
2019-05-02T10:36:33.261Z,26.03
2019-05-02T10:39:02.785Z,25.73
2019-05-02T10:41:39.528Z,24.47
2019-05-02T10:44:03.317Z,28.60
2019-05-02T10:46:38.472Z,28.83
2019-05-02T10:49:19.718Z,26.07
2019-05-02T10:51:51.870Z,28.37
2019-05-02T10:54:23.028Z,26.80
2019-05-02T10:56:52.188Z,26.57
2019-05-02T10:59:22.113Z,26.60
2019-05-02T11:02:09.341Z,24.10
2019-05-02T11:04:42.502Z,24.50
2019-05-02T11:07:12.030Z,19.67
2019-05-02T11:09:42.023Z,22.97
2019-05-02T11:12:16.427Z,25.50
2019-05-02T11:14:54.659Z,24.73
2019-05-02T11:17:36.392Z,25.40
2019-05-02T11:20:08.410Z,22.70
2019-05-02T11:22:37.792Z,25.30
2019-05-02T11:25:07.519Z,23.77
2019-05-02T11:27:36.895Z,26.47
2019-05-02T11:30:07.278Z,25.80
2019-05-02T11:32:36.764Z,23.13
2019-05-02T11:35:06.344Z,18.90
2019-05-02T11:37:35.728Z,22.33
2019-05-02T11:40:07.517Z,22.67
2019-05-02T11:42:37.487Z,18.57
2019-05-02T11:45:07.325Z,26.33
2019-05-02T11:47:36.724Z,24.70
2019-05-02T11:50:06.764Z,23.40
2019-05-02T11:52:37.523Z,24.23
2019-05-02T11:55:07.040Z,23.13
2019-05-02T11:57:36.414Z,23.33
2019-05-02T12:00:08.970Z,23.40
2019-05-02T12:03:02.037Z,22.63
2019-05-02T12:05:42.976Z,24.83
2019-05-02T12:08:12.446Z,25.20
2019-05-02T12:10:42.228Z,23.90
2019-05-02T12:13:15.959Z,22.43
2019-05-02T12:15:44.400Z,24.83
2019-05-02T12:18:13.930Z,23.67
2019-05-02T12:20:43.451Z,22.57
2019-05-02T12:23:13.120Z,24.10
2019-05-02T12:25:42.622Z,23.73
2019-05-02T12:28:12.200Z,22.60
2019-05-02T12:30:41.996Z,24.83
2019-05-02T12:33:12.444Z,24.60
2019-05-02T12:35:43.260Z,24.57
2019-05-02T12:38:12.840Z,23.37
2019-05-02T12:40:42.370Z,24.90
2019-05-02T12:43:12.216Z,24.33
2019-05-02T12:45:42.228Z,24.90
2019-05-02T12:48:13.005Z,22.70
2019-05-02T12:50:42.719Z,23.70
2019-05-02T12:53:12.742Z,24.23
2019-05-02T12:55:42.371Z,24.17
2019-05-02T12:58:12.586Z,25.23
2019-05-02T13:00:43.035Z,27.17
2019-05-02T13:03:31.801Z,25.77
2019-05-02T13:06:03.058Z,26.90
2019-05-02T13:08:34.192Z,28.13
2019-05-02T13:11:13.717Z,25.13
2019-05-02T13:13:41.886Z,23.70
2019-05-02T13:16:12.175Z,25.13
2019-05-02T13:18:42.384Z,24.20
2019-05-02T13:21:16.840Z,23.80
2019-05-02T13:24:02.315Z,22.70
2019-05-02T13:26:32.045Z,22.40
2019-05-02T13:29:02.453Z,23.70
2019-05-02T13:31:42.265Z,24.57
2019-05-02T13:34:43.297Z,21.03
2019-05-02T13:37:14.938Z,24.63
2019-05-02T13:39:53.353Z,25.87
2019-05-02T13:42:22.817Z,26.23
2019-05-02T13:45:07.206Z,27.03
2019-05-02T13:47:36.576Z,26.00
2019-05-02T13:50:07.017Z,28.13
2019-05-02T13:52:36.362Z,27.67
2019-05-02T13:55:08.036Z,29.50
2019-05-02T13:57:43.129Z,30.87
2019-05-02T14:00:08.847Z,32.13
2019-05-02T14:02:40.048Z,32.97
2019-05-02T14:05:18.268Z,36.80
2019-05-02T14:07:55.650Z,33.57
2019-05-02T14:10:32.182Z,33.27
2019-05-02T14:12:59.535Z,31.53
2019-05-02T14:15:37.739Z,33.43
2019-05-02T14:18:12.545Z,31.10
2019-05-02T14:20:42.775Z,33.33
2019-05-02T14:23:15.192Z,33.47
2019-05-02T14:25:54.666Z,32.93
2019-05-02T14:28:26.868Z,30.17
2019-05-02T14:30:56.245Z,35.23
2019-05-02T14:33:27.234Z,30.13
2019-05-02T14:35:56.629Z,32.60
2019-05-02T14:38:26.007Z,31.17
2019-05-02T14:41:21.780Z,34.90
2019-05-02T14:43:53.594Z,31.30
2019-05-02T14:46:29.023Z,30.87
2019-05-02T14:48:59.455Z,33.27
2019-05-02T14:51:28.882Z,30.50
2019-05-02T14:54:05.825Z,30.93
2019-05-02T14:56:46.246Z,31.83
2019-05-02T14:59:15.157Z,32.17
2019-05-02T15:01:43.203Z,29.80
2019-05-02T15:04:13.010Z,35.20
2019-05-02T15:06:47.111Z,31.93
2019-05-02T15:09:16.672Z,29.43
2019-05-02T15:11:59.051Z,29.55
2019-05-02T15:14:29.997Z,26.83
2019-05-02T15:16:59.662Z,28.10
2019-05-02T15:19:29.068Z,22.97
2019-05-02T15:21:58.570Z,17.00
2019-05-02T15:24:33.177Z,13.47
2019-05-02T15:27:03.938Z,11.67
2019-05-02T15:29:32.175Z,11.10
2019-05-02T15:32:22.022Z,13.50
2019-05-02T15:35:27.031Z,14.13
2019-05-02T15:38:01.234Z,12.23
2019-05-02T15:43:04.144Z,12.43
2019-05-02T15:45:29.702Z,10.33
2019-05-02T15:47:59.215Z,8.60
2019-05-02T15:50:28.729Z,8.50
2019-05-02T15:53:25.084Z,7.07
2019-05-02T15:55:54.530Z,7.47
2019-05-02T15:58:27.903Z,7.17
2019-05-02T16:01:13.391Z,7.07
2019-05-02T16:03:46.167Z,8.20
2019-05-02T16:06:21.073Z,10.53
2019-05-02T16:08:49.536Z,9.23
2019-05-02T16:11:19.413Z,8.30
2019-05-02T16:13:54.079Z,7.60
2019-05-02T16:16:22.068Z,7.27
2019-05-02T16:18:52.535Z,7.07
2019-05-02T16:21:42.628Z,7.87
2019-05-02T16:24:27.132Z,8.23
2019-05-02T16:26:57.293Z,9.30
2019-05-02T16:29:28.850Z,9.47
2019-05-02T16:32:09.600Z,9.33
2019-05-02T16:34:56.293Z,9.37
2019-05-02T16:37:52.314Z,8.83
2019-05-02T16:40:32.152Z,12.30
2019-05-02T16:42:59.643Z,10.53
2019-05-02T16:45:29.066Z,10.80
2019-05-02T16:48:00.478Z,9.87
2019-05-02T16:50:34.680Z,11.10
2019-05-02T16:53:03.294Z,10.70
2019-05-02T16:55:33.354Z,11.90
2019-05-02T16:58:07.125Z,10.87
2019-05-02T17:00:45.513Z,14.50
2019-05-02T17:03:17.308Z,12.73
2019-05-02T17:05:49.339Z,12.13
2019-05-02T17:08:42.216Z,11.00
2019-05-02T17:11:16.706Z,15.30
2019-05-02T17:13:46.271Z,14.33
2019-05-02T17:16:17.308Z,13.20
2019-05-02T17:18:48.395Z,18.30
2019-05-02T17:21:18.679Z,15.27
2019-05-02T17:23:49.834Z,16.60
2019-05-02T17:26:19.681Z,16.37
2019-05-02T17:28:49.463Z,16.00
2019-05-02T17:31:21.121Z,17.47
2019-05-02T17:33:52.927Z,14.47
2019-05-02T17:36:28.511Z,14.93
2019-05-02T17:38:54.591Z,18.47
2019-05-02T17:41:24.323Z,16.53
2019-05-02T17:43:57.508Z,15.07
2019-05-02T17:46:25.988Z,16.80
2019-05-02T17:48:55.775Z,15.13
2019-05-02T17:51:37.893Z,17.97
2019-05-02T17:54:08.747Z,15.03
2019-05-02T17:56:38.398Z,14.83
2019-05-02T17:59:07.979Z,17.33
2019-05-02T18:01:41.810Z,16.93
2019-05-02T18:04:15.293Z,16.13
2019-05-02T18:06:46.912Z,16.87
2019-05-02T18:09:15.645Z,15.80
2019-05-02T18:12:07.183Z,16.93
2019-05-02T18:14:35.938Z,17.70
2019-05-02T18:17:05.773Z,16.67
2019-05-02T18:19:35.324Z,15.23
2019-05-02T18:22:07.125Z,16.27
2019-05-02T18:24:37.463Z,14.83
2019-05-02T18:27:08.890Z,14.23
2019-05-02T18:29:42.440Z,14.83
2019-05-02T18:32:12.802Z,14.60
2019-05-02T18:34:42.960Z,14.77
2019-05-02T18:37:12.628Z,14.93
2019-05-02T18:39:49.927Z,12.30
2019-05-02T18:42:16.530Z,10.80
2019-05-02T18:44:48.230Z,9.73
2019-05-02T18:47:20.373Z,9.33
2019-05-02T18:49:48.748Z,8.27
2019-05-02T18:52:18.699Z,6.50
2019-05-02T18:54:48.381Z,6.03
2019-05-02T18:57:24.470Z,5.27
2019-05-02T18:59:52.019Z,4.50
2019-05-02T19:02:21.545Z,3.80
2019-05-02T19:04:51.672Z,3.47
2019-05-02T19:07:30.870Z,3.50
2019-05-02T19:09:53.928Z,3.60
2019-05-02T19:12:26.003Z,3.43
2019-05-02T19:14:57.539Z,3.47
2019-05-02T19:17:26.072Z,3.23
2019-05-02T19:19:55.515Z,2.67
2019-05-02T19:22:25.080Z,2.43
2019-05-02T19:24:54.524Z,2.70
2019-05-02T19:27:42.902Z,2.43
2019-05-02T19:30:13.378Z,2.30
2019-05-02T19:32:42.818Z,2.30
2019-05-02T19:35:12.331Z,2.60
2019-05-02T19:37:46.223Z,2.83
2019-05-02T19:40:20.050Z,2.37
2019-05-02T19:42:47.324Z,2.83
2019-05-02T19:45:17.043Z,2.17
2019-05-02T19:47:48.982Z,2.53
2019-05-02T19:50:41.760Z,2.13
2019-05-02T19:53:17.141Z,2.67
2019-05-02T19:55:42.707Z,2.20
2019-05-02T19:58:11.335Z,1.90
2019-05-02T20:00:42.217Z,1.90
2019-05-02T20:03:13.677Z,2.20
2019-05-02T20:05:43.953Z,2.07
2019-05-02T20:08:14.612Z,2.57
2019-05-02T20:10:49.348Z,2.80
2019-05-02T20:13:20.290Z,2.40
2019-05-02T20:15:57.074Z,2.07
2019-05-02T20:18:27.929Z,2.10
2019-05-02T20:21:23.384Z,2.60
2019-05-02T20:23:46.342Z,2.63
2019-05-02T20:26:17.118Z,2.40
2019-05-02T20:28:46.881Z,2.37
2019-05-02T20:31:17.796Z,2.13
2019-05-02T20:33:47.257Z,2.50
2019-05-02T20:36:16.680Z,2.10
2019-05-02T20:38:46.303Z,2.10
2019-05-02T20:41:16.350Z,2.17
2019-05-02T20:43:46.390Z,2.30
2019-05-02T20:46:16.187Z,2.13
2019-05-02T20:48:45.869Z,2.57
2019-05-02T20:51:16.155Z,2.23
2019-05-02T20:53:45.634Z,2.43
2019-05-02T20:56:15.099Z,2.40
2019-05-02T20:58:44.930Z,2.70
2019-05-02T21:01:14.416Z,3.13
2019-05-02T21:03:43.864Z,2.60
2019-05-02T21:06:52.518Z,3.13
2019-05-02T21:09:55.635Z,2.77
2019-05-02T21:12:25.149Z,2.50
2019-05-02T21:14:54.634Z,3.17
2019-05-02T21:17:24.055Z,3.07
2019-05-02T21:19:53.463Z,2.57
2019-05-02T21:22:26.263Z,3.43
2019-05-02T21:24:55.643Z,3.60
2019-05-02T21:27:25.025Z,2.80
2019-05-02T21:29:54.528Z,3.13
2019-05-02T21:32:23.940Z,3.00
2019-05-02T21:34:53.470Z,3.20
2019-05-02T21:37:22.972Z,2.43
2019-05-02T21:39:52.360Z,2.40
2019-05-02T21:42:22.561Z,2.73
2019-05-02T21:44:52.224Z,2.33
2019-05-02T21:47:22.496Z,2.27
2019-05-02T21:50:01.856Z,2.50
2019-05-02T21:53:02.553Z,2.60
2019-05-02T21:55:49.538Z,2.77
2019-05-02T21:58:18.983Z,2.57
2019-05-02T22:00:55.512Z,2.70
2019-05-02T22:03:25.348Z,2.40
2019-05-02T22:05:54.780Z,2.20
2019-05-02T22:08:24.167Z,1.80
2019-05-02T22:10:53.621Z,1.80
2019-05-02T22:13:23.058Z,2.00
2019-05-02T22:15:52.486Z,2.33
2019-05-02T22:18:21.880Z,3.10
2019-05-02T22:20:52.278Z,2.63
2019-05-02T22:23:21.825Z,2.60
2019-05-02T22:25:52.627Z,2.53
2019-05-02T22:28:22.293Z,2.33
2019-05-02T22:30:52.218Z,2.63
2019-05-02T22:33:22.837Z,2.80
2019-05-02T22:35:52.453Z,2.77
2019-05-02T22:38:35.081Z,2.87
2019-05-02T22:41:04.487Z,2.73
2019-05-02T22:43:33.984Z,2.50
2019-05-02T22:46:06.279Z,2.23
2019-05-02T22:48:35.709Z,2.70
2019-05-02T22:51:05.181Z,3.23
2019-05-02T22:53:34.558Z,2.53
2019-05-02T22:56:03.938Z,2.93
2019-05-02T22:58:33.344Z,3.33
2019-05-02T23:01:03.635Z,3.63
2019-05-02T23:03:33.037Z,3.10
2019-05-02T23:06:02.441Z,2.67
2019-05-02T23:08:34.069Z,4.23
2019-05-02T23:11:03.546Z,3.00
2019-05-02T23:13:33.036Z,3.67
2019-05-02T23:16:02.883Z,3.83
2019-05-02T23:18:32.515Z,3.90
2019-05-02T23:21:02.202Z,4.00
2019-05-02T23:23:32.712Z,3.30
2019-05-02T23:26:17.726Z,4.70
2019-05-02T23:28:49.015Z,3.80
2019-05-02T23:31:18.403Z,4.13
2019-05-02T23:34:01.846Z,4.23
2019-05-02T23:36:32.441Z,3.80
2019-05-02T23:39:02.509Z,4.40
2019-05-02T23:41:32.870Z,3.70
2019-05-02T23:44:02.935Z,4.17
2019-05-02T23:46:32.438Z,3.90
2019-05-02T23:49:02.135Z,3.47
2019-05-02T23:51:32.081Z,3.70
2019-05-02T23:54:02.198Z,3.90
2019-05-02T23:56:32.526Z,4.00
2019-05-02T23:59:02.780Z,4.40
